Time;durP1;ratioP1;P1;durP2;ratioP2;P2;SDS_P1;SDS_P2;PMS_P1;PMS_P2;Temp;Humidity;BMP_temperature;BMP_pressure;BME280_temperature;BME280_humidity;BME280_pressure;Samples;Min_cycle;Max_cycle;Signal;HPM_P1;HPM_P2
2022/04/21 00:00:12;;;;;;;11.03;3.87;;;;;;;6.79;65.62;95681.72;4995477;28;20575;-67
2022/04/21 00:02:39;;;;;;;8.20;3.90;;;;;;;6.65;65.32;95685.03;4995047;28;20250;-67
2022/04/21 00:05:08;;;;;;;13.40;4.37;;;;;;;6.65;65.31;95686.84;4995863;28;20213;-67
2022/04/21 00:07:34;;;;;;;7.50;3.53;;;;;;;6.23;66.64;95681.78;4995225;28;20198;-67
2022/04/21 00:10:01;;;;;;;9.63;4.40;;;;;;;6.27;66.44;95680.47;4995662;28;20682;-67
2022/04/21 00:12:28;;;;;;;8.47;3.60;;;;;;;6.27;65.92;95674.44;4994946;28;20213;-67
2022/04/21 00:14:55;;;;;;;8.00;3.50;;;;;;;6.06;66.87;95677.56;4995559;28;20199;-67
2022/04/21 00:17:22;;;;;;;10.70;4.13;;;;;;;6.00;67.07;95663.50;4995221;28;20308;-68
2022/04/21 00:19:49;;;;;;;8.70;3.40;;;;;;;6.01;68.00;95663.34;4995153;28;20222;-68
2022/04/21 00:25:00;;;;;;;12.30;3.40;;;;;;;5.75;68.04;95661.81;4994998;28;20209;-67
2022/04/21 00:27:27;;;;;;;8.50;3.70;;;;;;;5.84;68.19;95661.72;4995357;28;20207;-67
2022/04/21 00:29:54;;;;;;;6.87;3.87;;;;;;;5.79;68.53;95664.00;4995569;28;20194;-67
2022/04/21 00:32:20;;;;;;;9.97;3.70;;;;;;;6.02;68.16;95658.91;4994399;28;20211;-67
2022/04/21 00:34:46;;;;;;;8.47;4.10;;;;;;;6.02;68.64;95659.75;4995458;28;20207;-68
2022/04/21 00:37:13;;;;;;;8.67;3.37;;;;;;;6.06;68.35;95666.28;4995368;28;20699;-67
2022/04/21 00:39:41;;;;;;;8.73;4.03;;;;;;;6.37;67.34;95652.34;4994386;28;20284;-68
2022/04/21 00:42:08;;;;;;;10.17;4.57;;;;;;;6.18;68.56;95655.31;4995042;28;20213;-67
2022/04/21 00:44:35;;;;;;;7.43;3.63;;;;;;;6.12;68.67;95650.75;4995041;28;20890;-67
2022/04/21 00:47:05;;;;;;;11.03;4.33;;;;;;;6.45;68.77;95651.53;4994544;28;20199;-67
2022/04/21 00:49:33;;;;;;;10.30;4.13;;;;;;;6.24;68.44;95653.84;4994465;28;20302;-67
2022/04/21 00:52:01;;;;;;;10.13;4.40;;;;;;;6.21;68.10;95655.00;4995667;28;20199;-67
2022/04/21 00:54:31;;;;;;;11.70;3.93;;;;;;;6.54;67.54;95647.91;4993786;28;20210;-68
2022/04/21 00:57:00;;;;;;;11.27;4.60;;;;;;;6.48;68.04;95646.78;4994386;28;20709;-68
2022/04/21 00:59:27;;;;;;;8.60;3.63;;;;;;;6.34;68.53;95651.84;4994783;28;20237;-67
2022/04/21 01:04:39;;;;;;;12.43;4.33;;;;;;;6.29;67.95;95641.91;4994061;28;20746;-67
2022/04/21 01:07:08;;;;;;;7.13;3.53;;;;;;;6.09;68.22;95645.84;4994301;28;20655;-67
2022/04/21 01:09:35;;;;;;;12.00;4.73;;;;;;;6.04;67.56;95647.31;4995062;28;20219;-68
2022/04/21 01:12:05;;;;;;;7.97;4.00;;;;;;;6.24;68.32;95632.94;4994612;28;20199;-67
2022/04/21 01:14:31;;;;;;;9.53;4.33;;;;;;;5.95;69.16;95642.25;4993483;28;20223;-68
2022/04/21 01:17:00;;;;;;;7.87;3.97;;;;;;;6.00;69.08;95645.22;4994597;28;20207;-67
2022/04/21 01:19:26;;;;;;;9.73;3.80;;;;;;;5.60;69.89;95648.56;4993111;28;20879;-67
2022/04/21 01:21:54;;;;;;;8.00;3.90;;;;;;;5.87;70.50;95640.47;4994459;28;20961;-67
2022/04/21 01:24:20;;;;;;;9.00;3.80;;;;;;;5.74;70.66;95645.31;4993808;28;20883;-67
2022/04/21 01:26:47;;;;;;;6.63;3.60;;;;;;;5.89;70.10;95645.53;4994717;28;21274;-67
2022/04/21 01:29:14;;;;;;;9.87;4.10;;;;;;;6.06;69.52;95640.13;4994020;28;20268;-67
2022/04/21 01:31:41;;;;;;;7.07;3.53;;;;;;;6.00;69.87;95639.97;4994276;28;20198;-67
2022/04/21 01:34:07;;;;;;;9.47;4.33;;;;;;;5.91;70.12;95646.19;4993939;28;20565;-67
2022/04/21 01:36:34;;;;;;;8.77;3.60;;;;;;;5.92;69.37;95632.94;4994405;28;20213;-67
2022/04/21 01:41:45;;;;;;;8.47;3.93;;;;;;;6.08;69.37;95632.94;4994430;28;20324;-67
2022/04/21 01:44:12;;;;;;;10.73;3.90;;;;;;;6.10;69.40;95630.97;4993284;28;20199;-68
2022/04/21 01:46:38;;;;;;;8.57;3.43;;;;;;;6.11;68.60;95638.66;4994407;28;20198;-68
2022/04/21 01:49:05;;;;;;;7.83;3.87;;;;;;;6.03;68.89;95643.06;4994422;28;20218;-67
2022/04/21 01:51:31;;;;;;;9.73;4.40;;;;;;;5.97;69.48;95640.28;4994067;28;20206;-66
2022/04/21 01:53:58;;;;;;;13.37;4.57;;;;;;;5.98;70.06;95636.69;4993287;28;20222;-67
2022/04/21 01:56:26;;;;;;;10.03;3.90;;;;;;;6.19;69.45;95630.78;4994471;28;20210;-67
2022/04/21 01:58:52;;;;;;;7.50;4.13;;;;;;;6.04;69.20;95627.19;4993499;28;20226;-67
2022/04/21 02:01:18;;;;;;;8.77;4.03;;;;;;;5.79;69.35;95635.22;4993730;28;20213;-68
2022/04/21 02:03:45;;;;;;;6.00;3.40;;;;;;;5.93;68.89;95633.75;4993541;28;20213;-67
2022/04/21 02:06:13;;;;;;;10.47;4.13;;;;;;;6.11;69.35;95638.66;4994198;28;20210;-67
2022/04/21 02:08:40;;;;;;;8.90;4.30;;;;;;;6.04;69.54;95646.50;4993403;28;20219;-68
2022/04/21 02:11:06;;;;;;;11.37;3.77;;;;;;;5.79;69.81;95639.63;4993943;28;20207;-67
2022/04/21 02:13:34;;;;;;;7.00;3.80;;;;;;;5.94;69.86;95644.03;4993707;28;20206;-66
2022/04/21 02:16:01;;;;;;;8.33;3.30;;;;;;;5.81;70.31;95642.91;4993695;28;20199;-68
2022/04/21 02:18:27;;;;;;;7.80;3.50;;;;;;;5.72;69.54;95641.22;4993594;28;20264;-68
2022/04/21 02:20:54;;;;;;;10.73;3.43;;;;;;;5.47;69.61;95652.63;4992622;28;20209;-68
2022/04/21 02:23:20;;;;;;;8.37;4.13;;;;;;;5.47;70.62;95632.53;4991823;28;20546;-67
2022/04/21 02:25:46;;;;;;;9.90;3.40;;;;;;;5.46;70.86;95641.34;4993985;28;20211;-68
2022/04/21 02:28:13;;;;;;;7.13;4.20;;;;;;;5.54;71.82;95637.94;4993545;28;20974;-67
2022/04/21 02:30:41;;;;;;;8.77;4.50;;;;;;;5.64;71.86;95634.19;4996371;28;20564;-68
2022/04/21 02:33:08;;;;;;;7.10;3.50;;;;;;;5.50;70.76;95631.41;4996377;28;20259;-67
2022/04/21 02:35:35;;;;;;;7.50;3.90;;;;;;;5.55;70.53;95634.38;4997047;28;20773;-67
2022/04/21 02:38:01;;;;;;;6.57;3.73;;;;;;;5.42;71.14;95639.22;4996594;28;20226;-67
2022/04/21 02:40:28;;;;;;;6.87;3.63;;;;;;;5.38;71.80;95635.28;4996755;28;20257;-67
2022/04/21 02:42:54;;;;;;;16.03;3.63;;;;;;;5.41;72.52;95632.38;4996634;28;20199;-67
2022/04/21 02:45:21;;;;;;;7.90;3.90;;;;;;;5.49;72.79;95635.00;4997392;28;20240;-68
2022/04/21 02:47:50;;;;;;;8.83;4.60;;;;;;;5.68;72.86;95632.88;4996670;28;20254;-66
2022/04/21 02:50:18;;;;;;;7.97;4.17;;;;;;;5.68;72.72;95630.28;4996155;28;20640;-67
2022/04/21 02:52:45;;;;;;;10.10;4.60;;;;;;;5.53;72.63;95625.84;4996263;28;20207;-67
2022/04/21 02:57:57;;;;;;;7.50;3.47;;;;;;;5.45;71.62;95623.22;4997011;28;20233;-67
2022/04/21 03:00:24;;;;;;;7.90;3.87;;;;;;;5.35;72.39;95617.34;4997144;28;20226;-67
2022/04/21 03:02:52;;;;;;;6.73;3.67;;;;;;;5.46;71.29;95614.44;4996515;28;20210;-67
2022/04/21 03:05:19;;;;;;;8.17;3.77;;;;;;;5.37;71.15;95615.34;4996830;28;20210;-67
2022/04/21 03:07:45;;;;;;;8.70;4.30;;;;;;;5.32;72.50;95612.44;4997123;28;20223;-68
2022/04/21 03:10:12;;;;;;;8.40;3.83;;;;;;;5.57;72.74;95608.88;4996521;28;20348;-67
2022/04/21 03:12:38;;;;;;;9.47;4.27;;;;;;;5.67;72.39;95606.91;4996214;28;20656;-68
2022/04/21 03:15:06;;;;;;;8.50;4.23;;;;;;;5.80;73.07;95602.84;4996709;28;20206;-68
2022/04/21 03:17:33;;;;;;;6.03;3.40;;;;;;;5.56;71.79;95615.06;4996851;28;20215;-68
2022/04/21 03:20:01;;;;;;;7.90;4.33;;;;;;;5.83;72.05;95609.56;4996421;28;20229;-68
2022/04/21 03:25:11;;;;;;;9.47;4.50;;;;;;;5.86;72.32;95596.19;4996309;28;20209;-67
2022/04/21 03:27:38;;;;;;;11.93;4.40;;;;;;;5.91;72.40;95593.91;4996271;28;20209;-67
2022/04/21 03:30:08;;;;;;;9.93;4.70;;;;;;;6.02;72.33;95590.94;4996307;28;20222;-67
2022/04/21 03:32:35;;;;;;;10.73;4.43;;;;;;;5.91;72.37;95589.47;4995462;28;20890;-67
2022/04/21 03:35:03;;;;;;;11.07;4.53;;;;;;;6.22;71.74;95593.03;4995447;28;20206;-67
2022/04/21 03:37:30;;;;;;;6.87;4.03;;;;;;;5.99;71.64;95583.41;4996091;28;20249;-67
2022/04/21 03:39:56;;;;;;;9.37;4.33;;;;;;;5.55;73.07;95592.56;4996086;28;20226;-67
2022/04/21 03:42:24;;;;;;;11.37;4.43;;;;;;;5.27;75.13;95598.19;4994065;28;20203;-67
2022/04/21 03:44:51;;;;;;;9.60;4.17;;;;;;;5.46;75.03;95596.94;4996136;28;20287;-67
2022/04/21 03:47:17;;;;;;;9.50;4.70;;;;;;;5.58;74.97;95594.84;4996010;28;20629;-68
2022/04/21 03:49:44;;;;;;;9.47;4.43;;;;;;;5.72;75.13;95595.00;4995730;28;20230;-66
2022/04/21 03:52:12;;;;;;;14.00;5.17;;;;;;;5.86;75.52;95580.50;4995218;28;20577;-67
2022/04/21 03:54:39;;;;;;;10.77;5.60;;;;;;;5.83;75.58;95580.81;4995821;28;20202;-67
2022/04/21 03:57:05;;;;;;;12.23;5.27;;;;;;;5.94;75.58;95577.88;4995698;28;20293;-67
2022/04/21 03:59:33;;;;;;;11.80;4.90;;;;;;;6.04;74.88;95580.13;4995421;28;20222;-69
2022/04/21 04:02:02;;;;;;;8.27;4.23;;;;;;;5.68;74.39;95583.22;4995994;28;20237;-67
2022/04/21 04:04:29;;;;;;;11.63;5.17;;;;;;;5.88;74.48;95586.34;4994833;28;20742;-67
2022/04/21 04:12:29;;;;;;;9.63;5.27;;;;;;;6.00;74.72;95585.06;4994716;28;20210;-67
2022/04/21 04:14:56;;;;;;;10.80;4.90;;;;;;;5.93;75.21;95586.69;4995429;28;20202;-67
2022/04/21 04:17:22;;;;;;;12.67;5.63;;;;;;;5.98;75.43;95587.81;4995330;28;20218;-67
2022/04/21 04:19:49;;;;;;;12.47;5.03;;;;;;;6.09;74.57;95579.66;4995293;28;20219;-67
2022/04/21 04:22:15;;;;;;;12.00;4.83;;;;;;;5.84;74.22;95591.13;4994421;28;20698;-67
2022/04/21 04:24:45;;;;;;;12.00;4.83;;;;;;;5.90;74.50;95587.03;4995580;28;20318;-68
2022/04/21 04:27:11;;;;;;;12.17;5.73;;;;;;;5.84;74.59;95585.06;4995965;28;20205;-67
2022/04/21 04:29:38;;;;;;;15.87;6.07;;;;;;;6.00;75.02;95587.69;4995023;28;20218;-66
2022/04/21 04:32:05;;;;;;;12.40;6.07;;;;;;;5.84;75.25;95588.50;4993639;28;20203;-67
2022/04/21 04:34:32;;;;;;;13.00;5.57;;;;;;;5.77;75.74;95587.50;4994939;28;20206;-68
2022/04/21 04:36:58;;;;;;;11.33;5.77;;;;;;;5.93;75.47;95592.75;4995544;28;20195;-66
2022/04/21 04:39:25;;;;;;;14.50;6.10;;;;;;;5.93;75.07;95589.31;4994933;28;20230;-68
2022/04/21 04:44:37;;;;;;;10.33;5.37;;;;;;;6.07;75.23;95581.59;4994720;28;20312;-66
2022/04/21 04:47:03;;;;;;;12.77;5.40;;;;;;;6.02;74.66;95583.91;4995060;28;20203;-66
2022/04/21 04:49:29;;;;;;;9.97;5.33;;;;;;;5.97;74.61;95594.06;4995011;28;20230;-67
2022/04/21 04:51:55;;;;;;;15.73;6.53;;;;;;;5.95;75.72;95590.78;4994817;28;20207;-67
2022/04/21 04:54:22;;;;;;;14.57;7.33;;;;;;;6.05;76.07;95594.84;4994153;28;20209;-67
2022/04/21 04:56:48;;;;;;;11.83;5.87;;;;;;;6.10;76.07;95603.00;4995058;28;20214;-67
2022/04/21 04:59:16;;;;;;;19.07;6.30;;;;;;;5.94;77.02;95604.00;4994479;28;20306;-67
2022/04/21 05:01:45;;;;;;;15.23;6.67;;;;;;;5.83;77.05;95606.94;4994998;28;20252;-67
2022/04/21 05:04:13;;;;;;;13.43;5.80;;;;;;;5.76;77.19;95606.78;4994320;28;20230;-67
2022/04/21 05:06:43;;;;;;;12.00;6.07;;;;;;;6.08;76.05;95599.75;4994594;28;20203;-66
2022/04/21 05:09:11;;;;;;;15.47;6.67;;;;;;;6.09;75.73;95598.75;4994637;28;20223;-68
2022/04/21 05:11:38;;;;;;;13.23;6.40;;;;;;;6.07;76.10;95605.97;4994434;28;20203;-67
2022/04/21 05:14:07;;;;;;;16.30;6.37;;;;;;;6.12;76.53;95593.22;4994376;28;20213;-67
2022/04/21 05:16:36;;;;;;;13.17;6.80;;;;;;;6.16;77.18;95591.91;4995089;28;20206;-67
2022/04/21 05:19:04;;;;;;;14.63;7.00;;;;;;;6.15;77.36;95594.69;4994526;28;20238;-67
2022/04/21 05:21:32;;;;;;;24.30;7.17;;;;;;;6.42;77.20;95595.09;4993083;28;20222;-67
2022/04/21 05:23:59;;;;;;;16.63;7.67;;;;;;;6.45;77.55;95592.16;4993799;28;20213;-67
2022/04/21 05:26:27;;;;;;;17.17;7.50;;;;;;;6.40;78.18;95591.03;4994003;28;20203;-67
2022/04/21 05:28:55;;;;;;;16.23;7.80;;;;;;;6.61;77.75;95586.88;4994683;28;20232;-68
2022/04/21 05:31:21;;;;;;;18.60;7.60;;;;;;;6.64;76.89;95591.78;4994557;28;20239;-67
2022/04/21 05:33:49;;;;;;;18.40;8.03;;;;;;;6.97;76.50;95591.47;4993263;28;20694;-67
2022/04/21 05:36:17;;;;;;;14.53;7.37;;;;;;;6.90;76.51;95581.88;4993851;28;20217;-67
2022/04/21 05:38:46;;;;;;;14.57;6.67;;;;;;;6.86;76.07;95583.16;4994334;28;20222;-67
2022/04/21 05:41:13;;;;;;;12.07;6.03;;;;;;;6.74;75.83;95582.72;4994285;28;20226;-66
2022/04/21 05:43:42;;;;;;;17.40;6.70;;;;;;;6.80;76.46;95581.25;4993587;28;21184;-67
2022/04/21 05:46:09;;;;;;;22.23;8.30;;;;;;;6.88;76.62;95583.84;4993862;28;20252;-67
2022/04/21 05:48:37;;;;;;;18.60;8.63;;;;;;;6.88;78.07;95586.44;4994470;28;20345;-67
2022/04/21 05:51:06;;;;;;;17.87;8.47;;;;;;;7.19;78.54;95579.41;4994190;28;20202;-67
2022/04/21 05:53:36;;;;;;;17.20;7.30;;;;;;;7.30;77.69;95587.69;4993243;28;20662;-67
2022/04/21 05:56:04;;;;;;;15.00;7.70;;;;;;;7.43;77.65;95583.53;4994368;28;20199;-67
2022/04/21 05:58:30;;;;;;;19.43;7.57;;;;;;;7.60;77.64;95577.19;4994202;28;20219;-67
2022/04/21 06:00:57;;;;;;;18.30;9.07;;;;;;;7.70;78.03;95569.91;4994311;28;20229;-67
2022/04/21 06:03:24;;;;;;;19.67;9.30;;;;;;;7.93;77.83;95568.09;4993979;28;20203;-67
2022/04/21 06:05:51;;;;;;;20.83;9.13;;;;;;;8.02;77.77;95567.81;4996828;28;20630;-67
2022/04/21 06:08:18;;;;;;;18.03;9.27;;;;;;;7.86;80.13;95564.53;4997611;28;20230;-67
2022/04/21 06:10:45;;;;;;;30.53;10.90;;;;;;;7.99;79.15;95569.97;4997946;28;20575;-66
2022/04/21 06:13:15;;;;;;;17.03;8.70;;;;;;;7.97;78.80;95564.13;4997307;28;20210;-67
2022/04/21 06:15:42;;;;;;;21.83;9.77;;;;;;;8.10;77.90;95564.31;4996782;28;20276;-66
2022/04/21 06:18:08;;;;;;;16.13;8.57;;;;;;;8.11;79.67;95555.47;4996485;28;20238;-68
2022/04/21 06:20:35;;;;;;;19.57;9.60;;;;;;;8.18;79.33;95553.78;4997857;28;20229;-66
2022/04/21 06:23:02;;;;;;;23.23;9.80;;;;;;;8.22;79.57;95553.25;4996164;28;20663;-67
2022/04/21 06:25:30;;;;;;;22.37;9.43;;;;;;;8.58;77.83;95557.59;4997051;28;20207;-68
2022/04/21 06:27:56;;;;;;;22.57;9.90;;;;;;;8.14;78.32;95553.31;4997233;28;20226;-68
2022/04/21 06:30:23;;;;;;;18.37;8.40;;;;;;;8.38;77.58;95553.06;4997195;28;20198;-66
2022/04/21 06:32:49;;;;;;;20.57;8.97;;;;;;;8.48;79.19;95558.03;4995969;28;20209;-67
2022/04/21 06:35:17;;;;;;;14.53;8.43;;;;;;;8.68;77.89;95558.16;4997130;28;20333;-66
2022/04/21 06:37:45;;;;;;;19.50;9.30;;;;;;;8.96;76.41;95548.63;4996710;28;20230;-67
2022/04/21 06:40:12;;;;;;;23.60;8.93;;;;;;;8.76;77.16;95554.63;4996441;28;20275;-66
2022/04/21 06:42:42;;;;;;;17.60;9.00;;;;;;;9.15;77.39;95554.09;4995912;28;20218;-67
2022/04/21 06:48:05;;;;;;;19.20;9.40;;;;;;;9.34;75.32;95544.78;4996552;28;20229;-66
2022/04/21 06:50:36;;;;;;;20.43;9.40;;;;;;;9.81;74.72;95546.72;4997180;28;20205;-66
2022/04/21 06:53:04;;;;;;;22.73;8.93;;;;;;;9.94;76.98;95538.94;4995930;28;20198;-67
2022/04/21 06:55:31;;;;;;;19.93;10.20;;;;;;;9.84;73.15;95548.16;4996724;28;20203;-66
2022/04/21 06:57:59;;;;;;;19.93;9.97;;;;;;;10.19;73.67;95548.06;4996522;28;20218;-66
2022/04/21 07:00:27;;;;;;;19.37;8.70;;;;;;;10.04;73.23;95547.34;4995039;28;20218;-66
2022/04/21 07:02:55;;;;;;;17.00;8.23;;;;;;;9.57;75.70;95550.69;4996147;28;20199;-67
2022/04/21 07:05:23;;;;;;;19.00;9.17;;;;;;;10.14;72.80;95555.72;4996608;28;20280;-67
2022/04/21 07:07:50;;;;;;;18.87;9.43;;;;;;;10.11;71.47;95548.19;4996307;28;20223;-67
2022/04/21 07:10:17;;;;;;;18.60;9.83;;;;;;;10.10;73.09;95557.09;4995962;28;20215;-66
2022/04/21 07:12:44;;;;;;;16.57;8.33;;;;;;;9.72;75.43;95558.38;4994702;28;20202;-66
2022/04/21 07:15:12;;;;;;;17.57;8.33;;;;;;;10.29;74.26;95558.28;4995816;28;20203;-67
2022/04/21 07:17:39;;;;;;;14.97;7.47;;;;;;;10.43;71.88;95561.59;4995368;28;20211;-67
2022/04/21 07:20:08;;;;;;;18.80;7.70;;;;;;;10.59;72.02;95556.03;4995917;28;20922;-66
2022/04/21 07:22:35;;;;;;;16.40;8.37;;;;;;;10.71;71.90;95556.31;4995264;28;20237;-67
2022/04/21 07:25:04;;;;;;;17.83;8.40;;;;;;;10.90;70.16;95552.97;4996156;28;20207;-67
2022/04/21 07:27:31;;;;;;;16.53;8.13;;;;;;;10.77;72.42;95559.00;4996906;28;20210;-67
2022/04/21 07:29:58;;;;;;;17.77;8.13;;;;;;;10.79;70.10;95551.69;4996290;28;20209;-67
2022/04/21 07:32:25;;;;;;;18.47;8.67;;;;;;;10.82;71.07;95550.47;4995169;28;20582;-67
2022/04/21 07:34:52;;;;;;;17.90;9.33;;;;;;;10.73;72.19;95559.56;4996352;28;20210;-67
2022/04/21 07:37:18;;;;;;;18.30;7.67;;;;;;;10.98;72.22;95559.72;4996954;28;20210;-67
2022/04/21 07:39:45;;;;;;;18.20;8.83;;;;;;;11.36;68.42;95566.16;4994426;28;20222;-66
2022/04/21 07:42:13;;;;;;;16.17;8.83;;;;;;;11.48;68.43;95559.31;4992120;28;20226;-66
2022/04/21 07:44:40;;;;;;;14.57;7.73;;;;;;;11.33;69.77;95550.72;4991964;28;20915;-67
2022/04/21 07:47:07;;;;;;;15.07;8.10;;;;;;;11.61;68.70;95556.72;4993430;28;20526;-66
2022/04/21 07:49:48;;;;;;;15.33;8.33;;;;;;;11.51;67.33;95550.19;4993595;28;20271;-67
2022/04/21 07:55:15;;;;;;;14.80;8.20;;;;;;;11.20;68.92;95553.31;4993403;28;20217;-66
2022/04/21 07:57:42;;;;;;;13.20;7.20;;;;;;;11.12;68.01;95544.75;4994827;28;20806;-66
2022/04/21 08:00:10;;;;;;;19.00;9.30;;;;;;;11.38;70.74;95553.59;4994886;28;20502;-67
2022/04/21 08:02:38;;;;;;;15.37;7.60;;;;;;;11.38;66.98;95556.22;4994181;28;20344;-67
2022/04/21 08:05:07;;;;;;;14.30;7.83;;;;;;;11.79;67.27;95546.41;4995161;28;20484;-66
2022/04/21 08:07:34;;;;;;;21.13;7.47;;;;;;;11.60;65.71;95550.63;4995251;28;20199;-66
2022/04/21 08:10:01;;;;;;;15.23;8.33;;;;;;;11.64;66.19;95551.84;4994714;28;20678;-67
2022/04/21 08:12:28;;;;;;;15.33;8.03;;;;;;;11.61;68.30;95559.38;4994414;28;20198;-67
2022/04/21 08:14:54;;;;;;;15.43;8.33;;;;;;;11.70;67.52;95556.34;4995033;28;20206;-67
2022/04/21 08:17:20;;;;;;;15.63;8.30;;;;;;;11.57;67.79;95563.41;4994506;28;20219;-66
2022/04/21 08:19:47;;;;;;;16.73;8.83;;;;;;;11.83;66.32;95560.84;4995068;28;20223;-66
2022/04/21 08:22:15;;;;;;;19.00;8.53;;;;;;;11.57;67.07;95553.66;4994175;28;20729;-66
2022/04/21 08:32:53;;;;;;;14.33;7.70;;;;;;;12.14;63.50;95555.78;4994407;28;20214;-66
2022/04/21 08:35:20;;;;;;;16.50;7.20;;;;;;;12.51;62.61;95556.78;4993796;28;20986;-67
2022/04/21 08:37:50;;;;;;;18.60;8.27;;;;;;;12.72;62.98;95548.63;4994655;28;20250;-67
2022/04/21 08:40:18;;;;;;;14.87;8.03;;;;;;;12.60;61.96;95552.09;4995059;28;20217;-67
2022/04/21 08:42:44;;;;;;;17.30;7.97;;;;;;;12.65;64.44;95552.28;4994079;28;20585;-67
2022/04/21 08:45:12;;;;;;;14.53;7.90;;;;;;;12.60;64.88;95550.28;4994269;28;20261;-67
2022/04/21 08:47:40;;;;;;;22.23;8.43;;;;;;;12.84;62.25;95553.06;4994077;28;20217;-67
2022/04/21 08:50:09;;;;;;;16.07;8.73;;;;;;;13.12;61.54;95543.06;4995087;28;20202;-67
2022/04/21 08:52:36;;;;;;;15.50;8.73;;;;;;;13.01;64.45;95546.34;4993754;28;20294;-67
2022/04/21 08:55:05;;;;;;;16.60;8.67;;;;;;;13.25;63.13;95543.00;4994350;28;20198;-67
2022/04/21 08:57:32;;;;;;;18.17;9.50;;;;;;;13.17;62.35;95537.13;4994649;28;20205;-66
2022/04/21 08:59:59;;;;;;;13.10;7.97;;;;;;;13.31;62.23;95536.84;4994015;28;20199;-67
2022/04/21 09:02:35;;;;;;;17.33;8.77;;;;;;;13.35;62.86;95526.66;4993734;28;20629;-67
2022/04/21 09:05:03;;;;;;;15.30;8.85;;;;;;;12.90;65.02;95536.38;4994695;28;20228;-66
2022/04/21 09:07:30;;;;;;;17.23;8.47;;;;;;;13.06;63.10;95532.47;4994023;28;20576;-67
2022/04/21 09:10:07;;;;;;;14.17;7.63;;;;;;;13.46;62.80;95534.75;4993699;28;20205;-66
2022/04/21 09:12:34;;;;;;;17.80;9.27;;;;;;;13.27;62.11;95535.66;4993588;28;20202;-66
2022/04/21 09:15:07;;;;;;;17.02;8.60;;;;;;;13.88;62.62;95537.56;4993854;28;20587;-66
2022/04/21 09:17:38;;;;;;;14.63;8.40;;;;;;;13.70;59.88;95532.19;4993534;28;20243;-67
2022/04/21 09:20:06;;;;;;;17.80;9.13;;;;;;;13.19;61.43;95522.66;4994259;28;20206;-66
2022/04/21 09:22:34;;;;;;;16.63;9.23;;;;;;;13.73;61.84;95525.66;4993042;28;20229;-67
2022/04/21 09:25:00;;;;;;;19.17;9.17;;;;;;;14.00;62.42;95522.59;4994015;28;20202;-67
2022/04/21 09:27:38;;;;;;;20.50;8.82;;;;;;;14.20;59.12;95524.09;4993627;28;20202;-67
2022/04/21 09:30:10;;;;;;;15.30;8.45;;;;;;;14.54;58.61;95515.66;4993965;28;20733;-66
2022/04/21 09:32:37;;;;;;;14.57;8.53;;;;;;;13.99;57.77;95515.69;4993068;28;20741;-67
2022/04/21 09:35:05;;;;;;;16.50;8.95;;;;;;;14.46;59.33;95513.28;4993949;28;20210;-66
2022/04/21 09:37:31;;;;;;;16.05;8.43;;;;;;;13.90;59.26;95514.34;4993899;28;20203;-67
2022/04/21 09:39:58;;;;;;;16.38;9.00;;;;;;;13.90;62.07;95511.69;4992887;28;20372;-66
2022/04/21 09:42:25;;;;;;;13.93;8.52;;;;;;;14.71;58.98;95501.63;4992959;28;20225;-67
2022/04/21 09:47:48;;;;;;;17.48;9.65;;;;;;;15.01;59.50;95499.84;4993564;28;20704;-67
2022/04/21 09:50:14;;;;;;;17.13;9.45;;;;;;;14.94;59.59;95493.84;4993528;28;20214;-67
2022/04/21 09:52:48;;;;;;;17.25;8.82;;;;;;;15.46;55.50;95494.00;4993385;28;20295;-67
2022/04/21 09:55:28;;;;;;;17.10;9.00;;;;;;;14.91;56.30;95496.09;4993551;28;20202;-66
2022/04/21 09:58:05;;;;;;;16.20;8.20;;;;;;;15.18;55.69;95487.59;4992964;28;20686;-67
2022/04/21 10:00:34;;;;;;;14.27;8.68;;;;;;;15.66;54.32;95485.78;4993390;28;20210;-66
2022/04/21 10:03:03;;;;;;;14.73;8.57;;;;;;;15.71;55.98;95484.06;4993859;28;20203;-66
2022/04/21 10:05:30;;;;;;;15.15;9.23;;;;;;;15.67;53.85;95484.72;4993227;28;20241;-66
2022/04/21 10:07:58;;;;;;;12.93;7.78;;;;;;;15.97;53.12;95479.19;4993113;28;20225;-66
2022/04/21 10:10:26;;;;;;;14.10;8.18;;;;;;;15.87;51.67;95486.06;4993356;28;20207;-67
2022/04/21 10:12:55;;;;;;;14.45;8.25;;;;;;;16.18;52.96;95478.63;4993080;28;20203;-66
2022/04/21 10:15:22;;;;;;;14.07;7.47;;;;;;;15.61;51.33;95485.66;4993138;28;20297;-66
2022/04/21 10:17:49;;;;;;;14.77;7.88;;;;;;;15.37;58.57;95478.63;4993086;28;20226;-67
2022/04/21 10:20:16;;;;;;;11.10;7.18;;;;;;;15.54;52.71;95484.91;4993070;28;20603;-67
2022/04/21 10:22:44;;;;;;;16.35;7.70;;;;;;;16.07;50.97;95476.75;4992311;28;20782;-66
2022/04/21 10:25:10;;;;;;;13.85;8.23;;;;;;;16.48;49.11;95468.72;4993504;28;20217;-67
2022/04/21 10:27:39;;;;;;;12.90;7.53;;;;;;;16.51;54.42;95468.28;4993068;28;20687;-66
2022/04/21 10:30:19;;;;;;;13.90;7.88;;;;;;;16.80;50.23;95469.97;4993060;28;20974;-67
2022/04/21 10:32:54;;;;;;;15.70;7.95;;;;;;;16.97;48.47;95460.22;4992366;28;20240;-66
2022/04/21 10:35:41;;;;;;;13.95;7.95;;;;;;;16.88;48.76;95457.13;4993302;28;20210;-66
2022/04/21 10:38:19;;;;;;;11.00;6.55;;;;;;;17.17;49.08;95456.13;4993181;28;20417;-67
2022/04/21 10:41:00;;;;;;;11.23;6.53;;;;;;;16.70;52.11;95459.13;4992645;28;20198;-67
2022/04/21 10:44:05;;;;;;;12.77;7.50;;;;;;;16.27;50.02;95460.53;4992800;28;20210;-66
2022/04/21 10:46:31;;;;;;;14.43;7.53;;;;;;;16.42;53.21;95443.09;4993465;28;20217;-67
2022/04/21 10:49:00;;;;;;;10.90;5.93;;;;;;;16.17;49.67;95447.75;4993317;28;20222;-67
2022/04/21 10:58:47;;;;;;;11.80;7.32;;;;;;;17.01;49.39;95424.13;4996302;28;20232;-67
2022/04/21 11:01:16;;;;;;;13.05;6.68;;;;;;;16.14;47.04;95423.47;4995922;28;20691;-67
2022/04/21 11:03:44;;;;;;;12.27;6.93;;;;;;;16.68;49.63;95421.31;4996148;28;20206;-68
2022/04/21 11:06:13;;;;;;;14.43;7.85;;;;;;;17.11;48.43;95412.63;4996664;28;20199;-67
2022/04/21 11:08:40;;;;;;;12.90;7.43;;;;;;;16.99;47.72;95415.56;4996251;28;20218;-66
2022/04/21 11:11:07;;;;;;;16.10;7.72;;;;;;;16.85;48.87;95417.69;4996305;28;20202;-67
2022/04/21 11:13:42;;;;;;;11.52;7.30;;;;;;;17.52;48.89;95401.72;4996136;28;20198;-67
2022/04/21 11:16:08;;;;;;;13.23;7.35;;;;;;;17.62;47.67;95396.59;4997504;28;20229;-68
2022/04/21 11:18:35;;;;;;;12.55;7.60;;;;;;;17.22;46.17;95387.84;4996525;28;20238;-67
2022/04/21 11:21:23;;;;;;;10.30;6.43;;;;;;;17.33;51.05;95389.66;4995630;28;20733;-67
2022/04/21 11:24:02;;;;;;;13.27;6.80;;;;;;;17.63;50.03;95382.22;4996156;28;20233;-67
2022/04/21 11:26:29;;;;;;;13.13;7.22;;;;;;;17.66;45.11;95387.06;4996069;28;20259;-68
2022/04/21 11:29:02;;;;;;;11.25;6.70;;;;;;;17.76;46.16;95387.25;4995818;28;20324;-66
2022/04/21 11:31:28;;;;;;;14.95;6.55;;;;;;;17.77;46.92;95387.00;4996121;28;20862;-67
2022/04/21 11:34:01;;;;;;;11.45;6.80;;;;;;;17.71;47.00;95384.50;4995433;28;20584;-67
2022/04/21 11:36:36;;;;;;;12.73;6.25;;;;;;;17.57;46.60;95377.06;4995636;28;20298;-67
2022/04/21 11:39:06;;;;;;;11.05;6.22;;;;;;;17.59;50.50;95385.59;4995825;28;20332;-67
2022/04/21 11:41:33;;;;;;;13.70;7.60;;;;;;;17.67;47.50;95383.34;4996128;28;20567;-67
2022/04/21 11:44:00;;;;;;;12.75;6.78;;;;;;;18.01;46.58;95374.31;4995245;28;20281;-68
2022/04/21 11:46:27;;;;;;;9.50;5.75;;;;;;;17.36;48.24;95378.53;4996072;28;20240;-67
2022/04/21 11:48:58;;;;;;;11.80;6.30;;;;;;;17.87;46.19;95373.84;4995908;28;20225;-67
2022/04/21 11:51:25;;;;;;;17.58;6.25;;;;;;;17.80;47.88;95369.72;4995638;28;20206;-67
2022/04/21 11:53:53;;;;;;;10.38;5.68;;;;;;;17.26;46.89;95366.88;4994776;28;20978;-67
2022/04/21 11:56:21;;;;;;;15.43;5.55;;;;;;;17.45;46.96;95361.13;4995752;28;20206;-67
2022/04/21 11:58:48;;;;;;;9.50;6.07;;;;;;;17.75;46.09;95364.28;4995405;28;20314;-67
2022/04/21 12:06:46;;;;;;;10.88;6.05;;;;;;;17.96;46.87;95355.56;4995389;28;20271;-67
2022/04/21 12:09:16;;;;;;;9.35;5.50;;;;;;;17.25;45.73;95358.09;4995330;28;20720;-67
2022/04/21 12:11:43;;;;;;;9.18;5.88;;;;;;;16.93;47.11;95356.13;4995952;28;20280;-67
2022/04/21 12:14:10;;;;;;;7.85;5.63;;;;;;;17.70;47.28;95344.75;4994488;28;20203;-68
2022/04/21 12:16:42;;;;;;;9.70;5.30;;;;;;;17.89;47.11;95354.94;4995166;28;20722;-67
2022/04/21 12:19:17;;;;;;;11.00;6.70;;;;;;;18.05;45.36;95349.59;4994828;28;20579;-67
2022/04/21 12:21:45;;;;;;;9.70;6.15;;;;;;;18.27;44.20;95347.81;4994873;28;20230;-67
2022/04/21 12:24:18;;;;;;;10.38;6.25;;;;;;;18.33;45.11;95348.69;4995025;28;20690;-67
2022/04/21 12:26:52;;;;;;;11.50;6.15;;;;;;;18.52;42.90;95351.66;4995516;28;20238;-66